createdAt,value
2017-04-11T00:00:42.994Z,0
2017-04-11T00:01:44.233Z,0
2017-04-11T00:02:45.480Z,0
2017-04-11T00:03:46.745Z,0
2017-04-11T00:04:48.001Z,0
2017-04-11T00:05:49.289Z,0
2017-04-11T00:06:50.554Z,0
2017-04-11T00:07:51.785Z,0
2017-04-11T00:08:53.052Z,0
2017-04-11T00:09:54.416Z,0
2017-04-11T00:10:55.749Z,0
2017-04-11T00:11:56.984Z,0
2017-04-11T00:12:58.225Z,0
2017-04-11T00:13:59.466Z,0
2017-04-11T00:15:00.762Z,0
2017-04-11T00:16:02.172Z,0
2017-04-11T00:17:03.380Z,0
2017-04-11T00:18:04.619Z,0
2017-04-11T00:19:05.929Z,0
2017-04-11T00:20:07.196Z,0
2017-04-11T00:21:08.412Z,0
2017-04-11T00:22:09.748Z,0
2017-04-11T00:23:11.023Z,0
2017-04-11T00:24:12.256Z,0
2017-04-11T00:25:13.515Z,0
2017-04-11T00:26:14.789Z,0
2017-04-11T00:27:16.065Z,0
2017-04-11T00:28:17.267Z,0
2017-04-11T00:29:18.642Z,0
2017-04-11T00:30:19.872Z,0
2017-04-11T00:31:21.111Z,0
2017-04-11T00:32:22.346Z,0
2017-04-11T00:33:23.597Z,0
2017-04-11T00:34:24.834Z,0
2017-04-11T00:35:26.078Z,0
2017-04-11T00:36:27.344Z,0
2017-04-11T00:37:28.587Z,0
2017-04-11T00:38:29.828Z,0
2017-04-11T00:39:31.073Z,0
2017-04-11T00:40:32.315Z,0
2017-04-11T00:41:33.649Z,0
2017-04-11T00:42:34.890Z,0
2017-04-11T00:43:36.129Z,0
2017-04-11T00:44:37.367Z,0
2017-04-11T00:45:38.600Z,0
2017-04-11T00:46:39.897Z,0
2017-04-11T00:47:41.162Z,0
2017-04-11T00:48:42.443Z,0
2017-04-11T00:49:43.713Z,0
2017-04-11T00:50:44.945Z,0
2017-04-11T00:51:46.185Z,0
2017-04-11T00:52:47.421Z,0
2017-04-11T00:53:48.720Z,0
2017-04-11T00:54:50.042Z,0
2017-04-11T00:55:51.298Z,0
2017-04-11T00:56:52.528Z,0
2017-04-11T00:57:53.917Z,0
2017-04-11T00:58:55.149Z,0
2017-04-11T00:59:56.388Z,0
2017-04-11T01:00:57.669Z,0
2017-04-11T01:01:58.906Z,0
2017-04-11T01:03:00.147Z,0
2017-04-11T01:04:01.384Z,0
2017-04-11T01:05:02.623Z,0
2017-04-11T01:06:03.858Z,0
2017-04-11T01:07:05.103Z,0
2017-04-11T01:08:06.359Z,0
2017-04-11T01:09:07.626Z,0
2017-04-11T01:10:08.838Z,0
2017-04-11T01:11:10.077Z,0
2017-04-11T01:12:11.320Z,0
2017-04-11T01:13:12.628Z,0
2017-04-11T01:14:13.874Z,0
2017-04-11T01:15:15.123Z,0
2017-04-11T01:16:16.362Z,0
2017-04-11T01:17:17.622Z,0
2017-04-11T01:18:18.847Z,0
2017-04-11T01:19:20.101Z,0
2017-04-11T01:20:21.373Z,0
2017-04-11T01:21:22.656Z,0
2017-04-11T01:22:24.009Z,0
2017-04-11T01:23:25.251Z,0
2017-04-11T01:24:26.487Z,0
2017-04-11T01:25:27.749Z,0
2017-04-11T01:26:28.995Z,0
2017-04-11T01:27:30.244Z,0
2017-04-11T01:28:31.594Z,0
2017-04-11T01:29:32.818Z,0
2017-04-11T01:30:34.053Z,0
2017-04-11T01:31:35.290Z,0
2017-04-11T01:32:36.553Z,0
2017-04-11T01:33:37.810Z,0
2017-04-11T01:34:39.047Z,0
2017-04-11T01:35:40.284Z,0
2017-04-11T01:36:41.519Z,0
2017-04-11T01:37:42.754Z,0
2017-04-11T01:38:43.985Z,0
2017-04-11T01:39:45.220Z,0
2017-04-11T01:40:46.611Z,0
2017-04-11T01:41:47.831Z,0
2017-04-11T01:42:49.088Z,0
2017-04-11T01:43:50.319Z,0
2017-04-11T01:44:51.577Z,0
2017-04-11T01:45:52.812Z,0
2017-04-11T01:46:54.046Z,0
2017-04-11T01:47:55.310Z,0
2017-04-11T01:48:56.544Z,0
2017-04-11T01:49:57.785Z,0
2017-04-11T01:50:59.072Z,0
2017-04-11T01:52:00.326Z,0
2017-04-11T01:53:01.564Z,0
2017-04-11T01:54:02.811Z,0
2017-04-11T01:55:04.070Z,0
2017-04-11T01:56:05.314Z,0
2017-04-11T01:57:06.549Z,0
2017-04-11T01:58:07.802Z,0
2017-04-11T01:59:09.031Z,0
2017-04-11T02:00:10.375Z,0
2017-04-11T02:01:11.615Z,0
2017-04-11T02:02:12.847Z,0
2017-04-11T02:03:14.083Z,0
2017-04-11T02:04:15.321Z,0
2017-04-11T02:05:16.674Z,0
2017-04-11T02:06:17.953Z,0
2017-04-11T02:07:19.190Z,0
2017-04-11T02:08:20.434Z,0
2017-04-11T02:09:21.668Z,0
2017-04-11T02:10:22.987Z,0
2017-04-11T02:11:24.226Z,0
2017-04-11T02:12:25.459Z,0
2017-04-11T02:13:26.722Z,0
2017-04-11T02:14:27.937Z,0
2017-04-11T02:15:29.177Z,0
2017-04-11T02:16:30.405Z,0
2017-04-11T02:17:31.664Z,0
2017-04-11T02:18:32.883Z,0
2017-04-11T02:19:34.322Z,0
2017-04-11T02:20:35.547Z,0
2017-04-11T02:21:36.778Z,0
2017-04-11T02:22:38.086Z,0
2017-04-11T02:23:39.308Z,0
2017-04-11T02:24:40.559Z,0
2017-04-11T02:25:41.804Z,0
2017-04-11T02:26:43.032Z,0
2017-04-11T02:27:44.276Z,0
2017-04-11T02:28:45.524Z,0
2017-04-11T02:29:46.766Z,0
2017-04-11T02:30:48.002Z,0
2017-04-11T02:31:49.240Z,0
2017-04-11T02:32:50.588Z,0
2017-04-11T02:33:51.918Z,0
2017-04-11T02:34:53.185Z,0
2017-04-11T02:35:54.417Z,0
2017-04-11T02:36:55.723Z,0
2017-04-11T02:37:56.964Z,0
2017-04-11T02:38:58.219Z,0
2017-04-11T02:39:59.459Z,0
2017-04-11T02:41:00.709Z,0
2017-04-11T02:42:01.977Z,0
2017-04-11T02:43:03.208Z,0
2017-04-11T02:44:04.469Z,0
2017-04-11T02:45:05.742Z,0
2017-04-11T02:46:06.949Z,0
2017-04-11T02:47:08.206Z,0
2017-04-11T02:48:09.465Z,0
2017-04-11T02:49:10.746Z,0
2017-04-11T02:50:12.003Z,0
2017-04-11T02:51:13.295Z,0
2017-04-11T02:52:14.513Z,0
2017-04-11T02:53:15.762Z,0
2017-04-11T02:54:17.152Z,0
2017-04-11T02:55:18.470Z,0
2017-04-11T02:56:19.690Z,0
2017-04-11T02:57:20.951Z,0
2017-04-11T02:58:22.246Z,0
2017-04-11T02:59:23.473Z,0
2017-04-11T03:00:24.697Z,0
2017-04-11T03:01:25.970Z,0
2017-04-11T03:02:27.191Z,0
2017-04-11T03:03:28.478Z,0
2017-04-11T03:04:29.737Z,0
2017-04-11T03:05:30.985Z,0
2017-04-11T03:06:32.258Z,0
2017-04-11T03:07:33.475Z,0
2017-04-11T03:08:34.806Z,0
2017-04-11T03:09:36.048Z,0
2017-04-11T03:10:37.278Z,0
2017-04-11T03:11:38.519Z,0
2017-04-11T03:12:39.754Z,0
2017-04-11T03:13:41.082Z,0
2017-04-11T03:14:42.327Z,0
2017-04-11T03:15:43.563Z,0
2017-04-11T03:16:44.803Z,0
2017-04-11T03:17:46.042Z,0
2017-04-11T03:18:47.279Z,0
2017-04-11T03:19:48.520Z,0
2017-04-11T03:20:49.786Z,0
2017-04-11T03:21:51.087Z,0
2017-04-11T03:22:52.404Z,0
2017-04-11T03:23:53.631Z,0
2017-04-11T03:24:54.875Z,0
2017-04-11T03:25:56.144Z,0
2017-04-11T03:26:57.356Z,0
2017-04-11T03:27:58.657Z,0
2017-04-11T03:28:59.946Z,0
2017-04-11T03:30:01.183Z,0
2017-04-11T03:31:02.446Z,0
2017-04-11T03:32:03.703Z,0
2017-04-11T03:33:05.098Z,0
2017-04-11T03:34:06.379Z,0
2017-04-11T03:35:07.627Z,0
2017-04-11T03:36:08.887Z,0
2017-04-11T03:37:10.114Z,0
2017-04-11T03:38:11.349Z,0
2017-04-11T03:39:12.602Z,0
2017-04-11T03:40:13.838Z,0
2017-04-11T03:41:15.082Z,0
2017-04-11T03:42:16.341Z,0
2017-04-11T03:43:17.601Z,0
2017-04-11T03:44:18.813Z,0
2017-04-11T03:45:20.059Z,0
2017-04-11T03:46:21.299Z,0
2017-04-11T03:47:22.551Z,0
2017-04-11T03:48:23.793Z,0
2017-04-11T03:49:25.037Z,0
2017-04-11T03:50:26.282Z,0
2017-04-11T03:51:27.537Z,0
2017-04-11T03:52:28.809Z,0
2017-04-11T03:53:30.037Z,0
2017-04-11T03:54:31.272Z,0
2017-04-11T03:55:32.533Z,0
2017-04-11T03:56:33.822Z,0
2017-04-11T03:57:35.057Z,0
2017-04-11T03:58:36.288Z,0
2017-04-11T03:59:37.527Z,0
2017-04-11T04:00:38.772Z,0
2017-04-11T04:01:40.025Z,0
2017-04-11T04:02:41.254Z,0
2017-04-11T04:03:42.507Z,0
2017-04-11T04:04:43.759Z,0
2017-04-11T04:05:45.376Z,0
2017-04-11T04:06:46.700Z,4
2017-04-11T04:07:47.933Z,4
2017-04-11T04:08:49.172Z,0
2017-04-11T04:09:50.430Z,0
2017-04-11T04:10:51.663Z,4
2017-04-11T04:11:52.921Z,0
2017-04-11T04:12:54.177Z,4
2017-04-11T04:13:55.436Z,8
2017-04-11T04:14:56.727Z,4
2017-04-11T04:15:57.974Z,4
2017-04-11T04:16:59.218Z,8
2017-04-11T04:18:00.506Z,8
2017-04-11T04:19:01.761Z,8
2017-04-11T04:20:03.033Z,12
2017-04-11T04:21:04.279Z,16
2017-04-11T04:22:05.512Z,16
2017-04-11T04:23:06.757Z,20
2017-04-11T04:24:08.158Z,20
2017-04-11T04:25:09.454Z,24
2017-04-11T04:26:10.684Z,28
2017-04-11T04:27:11.927Z,36
2017-04-11T04:28:13.174Z,40
2017-04-11T04:29:14.403Z,48
2017-04-11T04:30:15.641Z,52
2017-04-11T04:31:16.885Z,60
2017-04-11T04:32:18.140Z,68
2017-04-11T04:33:19.379Z,76
2017-04-11T04:34:20.614Z,80
2017-04-11T04:35:21.839Z,92
2017-04-11T04:36:23.088Z,100
2017-04-11T04:37:24.399Z,108
2017-04-11T04:38:25.692Z,112
2017-04-11T04:39:26.949Z,128
2017-04-11T04:40:28.181Z,136
2017-04-11T04:41:29.411Z,144
2017-04-11T04:42:30.630Z,156
2017-04-11T04:43:32.017Z,164
2017-04-11T04:44:33.130Z,176
2017-04-11T04:45:34.498Z,192
2017-04-11T04:46:35.748Z,208
2017-04-11T04:47:37.005Z,224
2017-04-11T04:48:38.235Z,240
2017-04-11T04:49:39.469Z,256
2017-04-11T04:50:40.735Z,272
2017-04-11T04:51:42.076Z,284
2017-04-11T04:52:43.306Z,296
2017-04-11T04:53:44.612Z,308
2017-04-11T04:54:45.830Z,320
2017-04-11T04:55:47.085Z,336
2017-04-11T04:56:48.358Z,356
2017-04-11T04:57:49.615Z,376
2017-04-11T04:58:50.838Z,396
2017-04-11T04:59:52.187Z,416
2017-04-11T05:00:53.420Z,436
2017-04-11T05:01:54.655Z,444
2017-04-11T05:02:55.899Z,464
2017-04-11T05:03:57.133Z,524
2017-04-11T05:04:58.377Z,604
2017-04-11T05:05:59.610Z,628
2017-04-11T05:07:00.856Z,604
2017-04-11T05:08:02.081Z,556
2017-04-11T05:09:03.322Z,536
2017-04-11T05:10:04.693Z,512
2017-04-11T05:11:05.920Z,508
2017-04-11T05:12:07.147Z,500
2017-04-11T05:13:08.376Z,496
2017-04-11T05:14:09.613Z,488
2017-04-11T05:15:10.855Z,500
2017-04-11T05:16:12.116Z,520
2017-04-11T05:17:13.455Z,552
2017-04-11T05:18:14.790Z,576
2017-04-11T05:19:16.001Z,584
2017-04-11T05:20:17.240Z,624
2017-04-11T05:21:18.473Z,680
2017-04-11T05:22:19.775Z,728
2017-04-11T05:23:20.949Z,716
2017-04-11T05:24:22.189Z,696
2017-04-11T05:25:23.425Z,688
2017-04-11T05:26:24.666Z,664
2017-04-11T05:27:25.894Z,656
2017-04-11T05:28:27.157Z,684
2017-04-11T05:29:28.407Z,744
2017-04-11T05:30:29.660Z,820
2017-04-11T05:31:30.893Z,908
2017-04-11T05:32:32.132Z,984
2017-04-11T05:33:33.357Z,1032
2017-04-11T05:34:34.601Z,1016
2017-04-11T05:35:35.899Z,1024
2017-04-11T05:36:37.140Z,1108
2017-04-11T05:37:38.399Z,1220
2017-04-11T05:38:39.686Z,1332
2017-04-11T05:39:40.919Z,1448
2017-04-11T05:40:42.156Z,1592
2017-04-11T05:41:43.397Z,1684
2017-04-11T05:42:44.762Z,1644
2017-04-11T05:43:46.004Z,1628
2017-04-11T05:44:47.238Z,1716
2017-04-11T05:45:48.459Z,1756
2017-04-11T05:46:49.710Z,1680
2017-04-11T05:47:50.941Z,1576
2017-04-11T05:48:52.322Z,1584
2017-04-11T05:49:53.562Z,1652
2017-04-11T05:50:54.808Z,1748
2017-04-11T05:51:56.057Z,1856
2017-04-11T05:52:57.337Z,2036
2017-04-11T05:53:58.547Z,2164
2017-04-11T05:54:59.790Z,2292
2017-04-11T05:56:01.027Z,2464
2017-04-11T05:57:02.364Z,2592
2017-04-11T05:58:03.630Z,2592
2017-04-11T05:59:04.855Z,2476
2017-04-11T06:00:06.204Z,2284
2017-04-11T06:01:07.460Z,2248
2017-04-11T06:02:08.772Z,2352
2017-04-11T06:03:09.992Z,2472
2017-04-11T06:04:11.227Z,2576
2017-04-11T06:05:12.483Z,2672
2017-04-11T06:06:13.706Z,2772
2017-04-11T06:07:14.963Z,2876
2017-04-11T06:08:16.277Z,2984
2017-04-11T06:09:17.529Z,3044
2017-04-11T06:10:18.776Z,3084
2017-04-11T06:11:20.041Z,3096
2017-04-11T06:12:21.274Z,3112
2017-04-11T06:13:22.515Z,3064
2017-04-11T06:14:23.764Z,2840
2017-04-11T06:15:25.019Z,2736
2017-04-11T06:16:26.258Z,2404
2017-04-11T06:17:27.488Z,2604
2017-04-11T06:18:28.737Z,2828
2017-04-11T06:19:29.975Z,2876
2017-04-11T06:20:31.260Z,2828
2017-04-11T06:21:32.625Z,2812
2017-04-11T06:22:33.873Z,2688
2017-04-11T06:23:35.133Z,2472
2017-04-11T06:24:36.418Z,2388
2017-04-11T06:25:37.669Z,2508
2017-04-11T06:26:39.008Z,2452
2017-04-11T06:27:40.272Z,2420
2017-04-11T06:28:41.639Z,2364
2017-04-11T06:29:42.897Z,2316
2017-04-11T06:30:44.153Z,2108
2017-04-11T06:31:45.418Z,2012
2017-04-11T06:32:46.643Z,2204
2017-04-11T06:33:47.894Z,2244
2017-04-11T06:34:49.131Z,2176
2017-04-11T06:35:50.467Z,2168
2017-04-11T06:36:51.741Z,2204
2017-04-11T06:37:53.044Z,2308
2017-04-11T06:38:54.293Z,2364
2017-04-11T06:39:55.582Z,2424
2017-04-11T06:40:56.823Z,2460
2017-04-11T06:41:58.058Z,2400
2017-04-11T06:42:59.300Z,2244
2017-04-11T06:44:00.540Z,2136
2017-04-11T06:45:01.801Z,2288
2017-04-11T06:46:03.018Z,2364
2017-04-11T06:47:04.336Z,2364
2017-04-11T06:48:05.598Z,2384
2017-04-11T06:49:06.834Z,2408
2017-04-11T06:50:08.076Z,2404
2017-04-11T06:51:09.319Z,2392
2017-04-11T06:52:10.558Z,2424
2017-04-11T06:53:11.786Z,2444
2017-04-11T06:54:13.576Z,2468
2017-04-11T06:55:14.812Z,2488
2017-04-11T06:56:16.168Z,2488
2017-04-11T06:57:17.296Z,2504
2017-04-11T06:58:18.653Z,2564
2017-04-11T06:59:19.869Z,2636
2017-04-11T07:00:21.113Z,2664
2017-04-11T07:01:22.342Z,2664
2017-04-11T07:02:23.591Z,2648
2017-04-11T07:03:24.839Z,2660
2017-04-11T07:04:26.203Z,2664
2017-04-11T07:05:27.426Z,2664
2017-04-11T07:06:28.671Z,2696
2017-04-11T07:07:29.908Z,2732
2017-04-11T07:08:31.163Z,2748
2017-04-11T07:09:32.803Z,2748
2017-04-11T07:10:34.047Z,2760
2017-04-11T07:11:35.284Z,2768
2017-04-11T07:12:36.523Z,2772
2017-04-11T07:13:37.762Z,2756
2017-04-11T07:14:39.047Z,2740
2017-04-11T07:15:40.492Z,2720
2017-04-11T07:16:41.775Z,2716
2017-04-11T07:17:43.007Z,2728
2017-04-11T07:18:44.280Z,2764
2017-04-11T07:19:45.548Z,2836
2017-04-11T07:20:46.846Z,2948
2017-04-11T07:21:48.080Z,3020
2017-04-11T07:22:49.332Z,3104
2017-04-11T07:23:50.603Z,3160
2017-04-11T07:24:51.864Z,3216
2017-04-11T07:25:53.117Z,3340
2017-04-11T07:26:54.350Z,3548
2017-04-11T07:27:55.604Z,3776
2017-04-11T07:28:56.828Z,3888
2017-04-11T07:29:58.081Z,3984
2017-04-11T07:30:59.379Z,4176
2017-04-11T07:32:00.561Z,4400
2017-04-11T07:33:01.808Z,4624
2017-04-11T07:34:03.075Z,5032
2017-04-11T07:35:04.341Z,5344
2017-04-11T07:36:05.579Z,5652
2017-04-11T07:37:06.818Z,5952
2017-04-11T07:38:08.103Z,6276
2017-04-11T07:39:09.334Z,6532
2017-04-11T07:40:10.585Z,6732
2017-04-11T07:41:11.823Z,7024
2017-04-11T07:42:13.131Z,7468
2017-04-11T07:43:14.380Z,7860
2017-04-11T07:44:15.631Z,8600
2017-04-11T07:45:16.888Z,9180
2017-04-11T07:46:18.151Z,9448
2017-04-11T07:47:19.396Z,9584
2017-04-11T07:48:20.629Z,10004
2017-04-11T07:49:21.875Z,10136
2017-04-11T07:50:23.152Z,9976
2017-04-11T07:51:24.383Z,9776
2017-04-11T07:52:25.624Z,9364
2017-04-11T07:53:26.880Z,8904
2017-04-11T07:54:28.135Z,8568
2017-04-11T07:55:29.361Z,8288
2017-04-11T07:56:30.660Z,8176
2017-04-11T07:57:31.917Z,8164
2017-04-11T07:58:33.190Z,8664
2017-04-11T07:59:34.445Z,8844
2017-04-11T08:00:35.771Z,8684
2017-04-11T08:01:37.064Z,8404
2017-04-11T08:02:38.367Z,8772
2017-04-11T08:03:39.627Z,8984
2017-04-11T08:04:40.860Z,8588
2017-04-11T08:05:42.137Z,7952
2017-04-11T08:06:43.368Z,8072
2017-04-11T08:07:44.639Z,8060
2017-04-11T08:08:45.880Z,8432
2017-04-11T08:09:47.123Z,8408
2017-04-11T08:10:48.417Z,8136
2017-04-11T08:11:49.667Z,8156
2017-04-11T08:12:50.966Z,8332
2017-04-11T08:13:52.215Z,8256
2017-04-11T08:14:53.452Z,8332
2017-04-11T08:15:54.706Z,8080
2017-04-11T08:16:55.956Z,7536
2017-04-11T08:17:57.254Z,7048
2017-04-11T08:18:58.573Z,6840
2017-04-11T08:19:59.817Z,6780
2017-04-11T08:21:01.050Z,7256
2017-04-11T08:22:02.308Z,7832
2017-04-11T08:23:03.571Z,8360
2017-04-11T08:24:04.848Z,8760
2017-04-11T08:25:06.093Z,8864
2017-04-11T08:26:07.344Z,8500
2017-04-11T08:27:08.644Z,8560
2017-04-11T08:28:09.928Z,9352
2017-04-11T08:29:11.179Z,9928
2017-04-11T08:30:12.441Z,10492
2017-04-11T08:31:13.752Z,11256
2017-04-11T08:32:15.001Z,12324
2017-04-11T08:33:16.249Z,13012
2017-04-11T08:34:17.492Z,13000
2017-04-11T08:35:18.742Z,13500
2017-04-11T08:36:20.018Z,14124
2017-04-11T08:37:21.277Z,14400
2017-04-11T08:38:22.594Z,14732
2017-04-11T08:39:24.179Z,15264
2017-04-11T08:40:25.385Z,15208
2017-04-11T08:41:26.771Z,14892
2017-04-11T08:42:28.050Z,14820
2017-04-11T08:43:29.320Z,14236
2017-04-11T08:44:30.554Z,14096
2017-04-11T08:45:31.805Z,14968
2017-04-11T08:46:33.061Z,15920
2017-04-11T08:47:34.374Z,17024
2017-04-11T08:48:35.670Z,17824
2017-04-11T08:49:36.947Z,17504
2017-04-11T08:50:38.190Z,16380
2017-04-11T08:51:39.431Z,16148
2017-04-11T08:52:40.674Z,17600
2017-04-11T08:53:42.093Z,18208
2017-04-11T08:54:43.244Z,17088
2017-04-11T08:55:44.489Z,16364
2017-04-11T08:56:45.740Z,16960
2017-04-11T08:57:46.997Z,17792
2017-04-11T08:58:48.261Z,17824
2017-04-11T08:59:49.549Z,17376
2017-04-11T09:00:50.819Z,16256
2017-04-11T09:01:52.148Z,14604
2017-04-11T09:02:53.408Z,13960
2017-04-11T09:03:54.637Z,14264
2017-04-11T09:04:55.883Z,14888
2017-04-11T09:05:57.135Z,16104
2017-04-11T09:06:58.444Z,17216
2017-04-11T09:07:59.682Z,21152
2017-04-11T09:09:00.921Z,56320
2017-04-11T09:10:02.181Z,57824
2017-04-11T09:11:03.478Z,59200
2017-04-11T09:12:04.703Z,42048
2017-04-11T09:13:05.972Z,61024
2017-04-11T09:14:07.273Z,61920
2017-04-11T09:15:08.502Z,23392
2017-04-11T09:16:09.728Z,46176
2017-04-11T09:17:10.979Z,25024
2017-04-11T09:18:12.303Z,25600
2017-04-11T09:19:13.525Z,25056
2017-04-11T09:20:14.772Z,77984
2017-04-11T09:21:16.078Z,61472
2017-04-11T09:22:17.334Z,45632
2017-04-11T09:23:18.592Z,42752
2017-04-11T09:24:19.852Z,32256
2017-04-11T09:25:21.109Z,31712
2017-04-11T09:26:22.580Z,31360
2017-04-11T09:27:23.845Z,70176
2017-04-11T09:28:25.086Z,53824
2017-04-11T09:29:26.359Z,51872
2017-04-11T09:30:27.602Z,29088
2017-04-11T09:31:28.875Z,82752
2017-04-11T09:32:30.235Z,48896
2017-04-11T09:33:31.551Z,65568
2017-04-11T09:34:32.824Z,86048
2017-04-11T09:35:34.077Z,79872
2017-04-11T09:36:35.669Z,55808
2017-04-11T09:37:36.883Z,79488
2017-04-11T09:38:38.107Z,78592
2017-04-11T09:39:39.368Z,77184
2017-04-11T09:40:40.627Z,81088
2017-04-11T09:41:41.885Z,67232
2017-04-11T09:42:43.132Z,80640
2017-04-11T09:43:44.417Z,74144
2017-04-11T09:44:45.674Z,76768
2017-04-11T09:45:46.963Z,80320
2017-04-11T09:46:48.335Z,82368
2017-04-11T09:47:49.592Z,80192
2017-04-11T09:48:50.963Z,80864
2017-04-11T09:49:52.279Z,81632
2017-04-11T09:50:53.527Z,78048
2017-04-11T09:51:54.796Z,74944
2017-04-11T09:52:56.087Z,76736
2017-04-11T09:53:57.355Z,80800
2017-04-11T09:54:58.624Z,82656
2017-04-11T09:55:59.963Z,80928
2017-04-11T09:57:01.235Z,75968
2017-04-11T09:58:02.512Z,76704
2017-04-11T09:59:03.762Z,79776
2017-04-11T10:00:05.024Z,84256
2017-04-11T10:01:06.284Z,81792
2017-04-11T10:02:07.600Z,77664
2017-04-11T10:03:08.917Z,72064
2017-04-11T10:04:10.249Z,38944
2017-04-11T10:05:11.519Z,42144
2017-04-11T10:06:12.857Z,31424
2017-04-11T10:07:14.137Z,31456
2017-04-11T10:08:15.403Z,53184
2017-04-11T10:09:16.673Z,28512
2017-04-11T10:10:17.907Z,29152
2017-04-11T10:11:19.168Z,27360
2017-04-11T10:12:20.530Z,31296
2017-04-11T10:13:21.801Z,71264
2017-04-11T10:14:23.060Z,43552
2017-04-11T10:15:24.311Z,71264
2017-04-11T10:16:25.610Z,50208
2017-04-11T10:17:26.857Z,25312
2017-04-11T10:18:28.165Z,26080
2017-04-11T10:19:29.453Z,25536
2017-04-11T10:20:30.730Z,23488
2017-04-11T10:21:31.967Z,18048
2017-04-11T10:22:33.213Z,21920
2017-04-11T10:23:34.566Z,22336
2017-04-11T10:24:35.917Z,22080
2017-04-11T10:25:37.223Z,22880
2017-04-11T10:26:38.562Z,18144
2017-04-11T10:27:39.826Z,16800
2017-04-11T10:28:41.082Z,15656
2017-04-11T10:29:42.337Z,16928
2017-04-11T10:30:43.765Z,17600
2017-04-11T10:31:45.019Z,15888
2017-04-11T10:32:46.383Z,16368
2017-04-11T10:33:47.633Z,13020
2017-04-11T10:34:48.882Z,11796
2017-04-11T10:35:50.140Z,11732
2017-04-11T10:36:51.405Z,11980
2017-04-11T10:37:52.682Z,14508
2017-04-11T10:38:53.923Z,12404
2017-04-11T10:39:55.159Z,11452
2017-04-11T10:40:56.458Z,11336
2017-04-11T10:41:57.719Z,11952
2017-04-11T10:42:58.959Z,11884
2017-04-11T10:44:00.251Z,10748
2017-04-11T10:45:01.493Z,9944
2017-04-11T10:46:02.763Z,9896
2017-04-11T10:47:04.040Z,10472
2017-04-11T10:48:05.346Z,11496
2017-04-11T10:49:06.670Z,11432
2017-04-11T10:50:07.921Z,12188
2017-04-11T10:51:09.189Z,14860
2017-04-11T10:52:10.439Z,18272
2017-04-11T10:53:11.702Z,19968
2017-04-11T10:54:12.978Z,20096
2017-04-11T10:55:14.255Z,19776
2017-04-11T10:56:15.507Z,17600
2017-04-11T10:57:16.770Z,16928
2017-04-11T10:58:17.996Z,15380
2017-04-11T10:59:19.256Z,13884
2017-04-11T11:00:20.531Z,15556
2017-04-11T11:01:21.787Z,17920
2017-04-11T11:02:23.088Z,18464
2017-04-11T11:03:24.403Z,18816
2017-04-11T11:04:25.685Z,17056
2017-04-11T11:05:26.927Z,15168
2017-04-11T11:06:28.238Z,15008
2017-04-11T11:07:29.491Z,14160
2017-04-11T11:08:30.749Z,13136
2017-04-11T11:09:32.015Z,12672
2017-04-11T11:10:33.245Z,12852
2017-04-11T11:11:34.583Z,13956
2017-04-11T11:12:35.837Z,14292
2017-04-11T11:13:37.113Z,14980
2017-04-11T11:14:38.364Z,14968
2017-04-11T11:15:39.581Z,15964
2017-04-11T11:16:40.848Z,17024
2017-04-11T11:17:42.100Z,16992
2017-04-11T11:18:43.340Z,15516
2017-04-11T11:19:44.685Z,14868
2017-04-11T11:20:45.940Z,15540
2017-04-11T11:21:47.184Z,13276
2017-04-11T11:22:48.434Z,11400
2017-04-11T11:23:49.658Z,10872
2017-04-11T11:24:50.920Z,12208
2017-04-11T11:25:52.231Z,13628
2017-04-11T11:26:53.474Z,12648
2017-04-11T11:27:54.769Z,12736
2017-04-11T11:28:56.012Z,13280
2017-04-11T11:29:57.320Z,13788
2017-04-11T11:30:58.720Z,12744
2017-04-11T11:31:59.973Z,13188
2017-04-11T11:33:01.235Z,14884
2017-04-11T11:34:02.512Z,14464
2017-04-11T11:35:03.743Z,13716
2017-04-11T11:36:05.020Z,14336
2017-04-11T11:37:06.253Z,13012
2017-04-11T11:38:07.504Z,11216
2017-04-11T11:39:08.775Z,10072
2017-04-11T11:40:10.022Z,11264
2017-04-11T11:41:11.262Z,13972
2017-04-11T11:42:12.515Z,16824
2017-04-11T11:43:13.764Z,14660
2017-04-11T11:44:15.029Z,14872
2017-04-11T11:45:16.277Z,13320
2017-04-11T11:46:17.518Z,11512
2017-04-11T11:47:18.823Z,11084
2017-04-11T11:48:20.023Z,11796
2017-04-11T11:49:21.343Z,13168
2017-04-11T11:50:22.600Z,14840
2017-04-11T11:51:23.904Z,13464
2017-04-11T11:52:25.130Z,15176
2017-04-11T11:53:26.413Z,15984
2017-04-11T11:54:27.677Z,15148
2017-04-11T11:55:28.899Z,13664
2017-04-11T11:56:30.287Z,12852
2017-04-11T11:57:31.482Z,13148
2017-04-11T11:58:32.728Z,13688
2017-04-11T11:59:33.969Z,13228
2017-04-11T12:00:35.204Z,13368
2017-04-11T12:01:36.478Z,13832
2017-04-11T12:02:37.702Z,13112
2017-04-11T12:03:38.963Z,12208
2017-04-11T12:04:40.213Z,12240
2017-04-11T12:05:41.476Z,13328
2017-04-11T12:06:42.703Z,13152
2017-04-11T12:07:43.935Z,13520
2017-04-11T12:08:45.216Z,13852
2017-04-11T12:09:46.490Z,13372
2017-04-11T12:10:47.782Z,14088
2017-04-11T12:11:49.013Z,15152
2017-04-11T12:12:50.303Z,15248
2017-04-11T12:13:51.546Z,14456
2017-04-11T12:14:52.791Z,14604
2017-04-11T12:15:54.205Z,14292
2017-04-11T12:16:55.440Z,13620
2017-04-11T12:17:56.730Z,12824
2017-04-11T12:18:57.970Z,13136
2017-04-11T12:19:59.222Z,13628
2017-04-11T12:21:00.499Z,13280
2017-04-11T12:22:01.736Z,11624
2017-04-11T12:23:03.075Z,10000
2017-04-11T12:24:04.374Z,8204
2017-04-11T12:25:05.632Z,6892
2017-04-11T12:26:06.880Z,6060
2017-04-11T12:27:08.121Z,5456
2017-04-11T12:28:09.372Z,5088
2017-04-11T12:29:10.859Z,4748
2017-04-11T12:30:12.110Z,4156
2017-04-11T12:31:13.363Z,4260
2017-04-11T12:32:14.611Z,4436
2017-04-11T12:33:15.857Z,4144
2017-04-11T12:34:17.107Z,4480
2017-04-11T12:35:18.405Z,4856
2017-04-11T12:36:19.651Z,4332
2017-04-11T12:37:20.905Z,3680
2017-04-11T12:38:22.149Z,3688
2017-04-11T12:39:23.408Z,4072
2017-04-11T12:40:24.669Z,5060
2017-04-11T12:41:25.932Z,5140
2017-04-11T12:42:27.180Z,5332
2017-04-11T12:43:28.430Z,5684
2017-04-11T12:44:29.679Z,5752
2017-04-11T12:45:30.939Z,5492
2017-04-11T12:46:32.285Z,5196
2017-04-11T12:47:33.553Z,4728
2017-04-11T12:48:34.865Z,4904
2017-04-11T12:49:36.128Z,5268
2017-04-11T12:50:37.353Z,5512
2017-04-11T12:51:38.638Z,5628
2017-04-11T12:52:39.932Z,5820
2017-04-11T12:53:41.164Z,6096
2017-04-11T12:54:42.420Z,6156
2017-04-11T12:55:43.665Z,6636
2017-04-11T12:56:44.905Z,7032
2017-04-11T12:57:46.158Z,7248
2017-04-11T12:58:47.395Z,7132
2017-04-11T12:59:48.634Z,7240
2017-04-11T13:00:49.887Z,6900
2017-04-11T13:01:51.136Z,6448
2017-04-11T13:02:52.401Z,5876
2017-04-11T13:03:53.642Z,5456
2017-04-11T13:04:54.881Z,5040
2017-04-11T13:05:56.168Z,4428
2017-04-11T13:06:57.426Z,3864
2017-04-11T13:07:58.655Z,3536
2017-04-11T13:08:59.901Z,3312
2017-04-11T13:10:01.148Z,3176
2017-04-11T13:11:02.543Z,3072
2017-04-11T13:12:03.798Z,3316
2017-04-11T13:13:05.035Z,3276
2017-04-11T13:14:06.264Z,3356
2017-04-11T13:15:07.503Z,3320
2017-04-11T13:16:08.758Z,3472
2017-04-11T13:17:09.994Z,3256
2017-04-11T13:18:11.251Z,3276
2017-04-11T13:19:12.578Z,3520
2017-04-11T13:20:14.081Z,3416
2017-04-11T13:21:15.315Z,3640
2017-04-11T13:22:16.549Z,3948
2017-04-11T13:23:17.794Z,3732
2017-04-11T13:24:19.196Z,3548
2017-04-11T13:25:20.424Z,3944
2017-04-11T13:26:21.663Z,4396
2017-04-11T13:27:22.904Z,4640
2017-04-11T13:28:24.141Z,4868
2017-04-11T13:29:25.399Z,5580
2017-04-11T13:30:26.659Z,7112
2017-04-11T13:31:27.972Z,7076
2017-04-11T13:32:29.215Z,5636
2017-04-11T13:33:30.507Z,4848
2017-04-11T13:34:31.749Z,4948
2017-04-11T13:35:33.020Z,5344
2017-04-11T13:36:34.355Z,5448
2017-04-11T13:37:35.608Z,5616
2017-04-11T13:38:36.902Z,5540
2017-04-11T13:39:38.154Z,5688
2017-04-11T13:40:39.376Z,5844
2017-04-11T13:41:40.697Z,5732
2017-04-11T13:42:41.958Z,6204
2017-04-11T13:43:43.225Z,7112
2017-04-11T13:44:44.480Z,8708
2017-04-11T13:45:45.759Z,9288
2017-04-11T13:46:46.997Z,9284
2017-04-11T13:47:48.273Z,8964
2017-04-11T13:48:49.500Z,7900
2017-04-11T13:49:50.753Z,6648
2017-04-11T13:50:52.103Z,5648
2017-04-11T13:51:53.371Z,5392
2017-04-11T13:52:54.604Z,5660
2017-04-11T13:53:55.853Z,5880
2017-04-11T13:54:57.139Z,6344
2017-04-11T13:55:58.467Z,7036
2017-04-11T13:56:59.708Z,8032